sensor_id;sensor_type;location;lat;lon;timestamp;P1;durP1;ratioP1;P2;durP2;ratioP2
12048;SDS011;6085;49.452;8.502;2024-01-30T00:01:55;8.40;;;3.92;;
12048;SDS011;6085;49.452;8.502;2024-01-30T00:05:57;3.88;;;2.50;;
12048;SDS011;6085;49.452;8.502;2024-01-30T00:09:59;3.35;;;3.05;;
12048;SDS011;6085;49.452;8.502;2024-01-30T00:14:02;3.55;;;2.80;;
12048;SDS011;6085;49.452;8.502;2024-01-30T00:18:04;3.53;;;2.67;;
12048;SDS011;6085;49.452;8.502;2024-01-30T00:22:06;3.17;;;2.83;;
12048;SDS011;6085;49.452;8.502;2024-01-30T00:26:09;3.22;;;2.92;;
12048;SDS011;6085;49.452;8.502;2024-01-30T00:30:13;4.32;;;2.45;;
12048;SDS011;6085;49.452;8.502;2024-01-30T00:34:15;4.53;;;3.17;;
12048;SDS011;6085;49.452;8.502;2024-01-30T00:38:17;4.53;;;3.25;;
12048;SDS011;6085;49.452;8.502;2024-01-30T00:42:19;3.33;;;3.03;;
12048;SDS011;6085;49.452;8.502;2024-01-30T00:46:22;2.83;;;2.58;;
12048;SDS011;6085;49.452;8.502;2024-01-30T00:50:24;5.88;;;3.08;;
12048;SDS011;6085;49.452;8.502;2024-01-30T00:54:26;3.13;;;2.80;;
12048;SDS011;6085;49.452;8.502;2024-01-30T00:58:28;4.80;;;3.15;;
12048;SDS011;6085;49.452;8.502;2024-01-30T01:02:31;5.03;;;3.70;;
12048;SDS011;6085;49.452;8.502;2024-01-30T01:06:33;3.78;;;3.33;;
12048;SDS011;6085;49.452;8.502;2024-01-30T01:10:35;3.85;;;2.83;;
12048;SDS011;6085;49.452;8.502;2024-01-30T01:14:36;7.53;;;3.25;;
12048;SDS011;6085;49.452;8.502;2024-01-30T01:18:40;5.80;;;3.10;;
12048;SDS011;6085;49.452;8.502;2024-01-30T01:22:41;3.42;;;3.10;;
12048;SDS011;6085;49.452;8.502;2024-01-30T01:26:43;4.00;;;2.60;;
12048;SDS011;6085;49.452;8.502;2024-01-30T01:30:45;3.38;;;2.45;;
12048;SDS011;6085;49.452;8.502;2024-01-30T01:34:49;4.03;;;3.13;;
12048;SDS011;6085;49.452;8.502;2024-01-30T01:38:50;6.38;;;2.30;;
12048;SDS011;6085;49.452;8.502;2024-01-30T01:42:53;2.90;;;2.70;;
12048;SDS011;6085;49.452;8.502;2024-01-30T01:46:55;3.45;;;2.00;;
12048;SDS011;6085;49.452;8.502;2024-01-30T01:51:00;3.45;;;3.15;;
12048;SDS011;6085;49.452;8.502;2024-01-30T01:55:02;2.88;;;2.45;;
12048;SDS011;6085;49.452;8.502;2024-01-30T01:59:05;3.05;;;2.20;;
12048;SDS011;6085;49.452;8.502;2024-01-30T02:03:09;4.18;;;2.30;;
12048;SDS011;6085;49.452;8.502;2024-01-30T02:07:13;2.88;;;2.67;;
12048;SDS011;6085;49.452;8.502;2024-01-30T02:11:15;1.95;;;1.85;;
12048;SDS011;6085;49.452;8.502;2024-01-30T02:15:18;3.65;;;2.13;;
12048;SDS011;6085;49.452;8.502;2024-01-30T02:19:20;4.05;;;2.45;;
12048;SDS011;6085;49.452;8.502;2024-01-30T02:23:23;3.05;;;2.85;;
12048;SDS011;6085;49.452;8.502;2024-01-30T02:27:26;3.47;;;2.70;;
12048;SDS011;6085;49.452;8.502;2024-01-30T02:31:27;2.58;;;2.38;;
12048;SDS011;6085;49.452;8.502;2024-01-30T02:35:29;2.33;;;2.13;;
12048;SDS011;6085;49.452;8.502;2024-01-30T02:39:32;2.40;;;2.20;;
12048;SDS011;6085;49.452;8.502;2024-01-30T02:43:34;2.22;;;2.03;;
12048;SDS011;6085;49.452;8.502;2024-01-30T02:47:36;3.88;;;3.22;;
12048;SDS011;6085;49.452;8.502;2024-01-30T02:51:38;2.40;;;2.08;;
12048;SDS011;6085;49.452;8.502;2024-01-30T02:55:41;3.08;;;1.90;;
12048;SDS011;6085;49.452;8.502;2024-01-30T02:59:43;4.57;;;2.63;;
12048;SDS011;6085;49.452;8.502;2024-01-30T03:03:45;2.50;;;2.30;;
12048;SDS011;6085;49.452;8.502;2024-01-30T03:07:46;4.07;;;1.75;;
12048;SDS011;6085;49.452;8.502;2024-01-30T03:11:49;2.30;;;2.10;;
12048;SDS011;6085;49.452;8.502;2024-01-30T03:15:51;1.95;;;1.60;;
12048;SDS011;6085;49.452;8.502;2024-01-30T03:19:53;3.03;;;2.67;;
12048;SDS011;6085;49.452;8.502;2024-01-30T03:23:55;2.50;;;2.30;;
12048;SDS011;6085;49.452;8.502;2024-01-30T03:27:58;2.95;;;2.30;;
12048;SDS011;6085;49.452;8.502;2024-01-30T03:32:00;2.30;;;2.20;;
12048;SDS011;6085;49.452;8.502;2024-01-30T03:36:02;3.25;;;2.33;;
12048;SDS011;6085;49.452;8.502;2024-01-30T03:40:06;2.67;;;2.38;;
12048;SDS011;6085;49.452;8.502;2024-01-30T03:44:09;1.83;;;1.73;;
12048;SDS011;6085;49.452;8.502;2024-01-30T03:48:11;4.22;;;2.25;;
12048;SDS011;6085;49.452;8.502;2024-01-30T03:52:13;2.70;;;2.25;;
12048;SDS011;6085;49.452;8.502;2024-01-30T03:56:15;2.65;;;2.33;;
12048;SDS011;6085;49.452;8.502;2024-01-30T04:00:18;3.75;;;2.67;;
12048;SDS011;6085;49.452;8.502;2024-01-30T04:04:20;3.53;;;2.40;;
12048;SDS011;6085;49.452;8.502;2024-01-30T04:08:23;6.25;;;3.42;;
12048;SDS011;6085;49.452;8.502;2024-01-30T04:12:24;4.32;;;3.25;;
12048;SDS011;6085;49.452;8.502;2024-01-30T04:16:28;3.63;;;2.47;;
12048;SDS011;6085;49.452;8.502;2024-01-30T04:20:29;2.40;;;2.20;;
12048;SDS011;6085;49.452;8.502;2024-01-30T04:24:31;3.13;;;2.38;;
12048;SDS011;6085;49.452;8.502;2024-01-30T04:28:33;2.80;;;2.33;;
12048;SDS011;6085;49.452;8.502;2024-01-30T04:32:36;3.05;;;2.38;;
12048;SDS011;6085;49.452;8.502;2024-01-30T04:36:38;4.70;;;3.30;;
12048;SDS011;6085;49.452;8.502;2024-01-30T04:40:40;3.28;;;2.63;;
12048;SDS011;6085;49.452;8.502;2024-01-30T04:44:42;3.33;;;2.97;;
12048;SDS011;6085;49.452;8.502;2024-01-30T04:48:45;3.15;;;2.85;;
12048;SDS011;6085;49.452;8.502;2024-01-30T04:52:47;5.85;;;3.85;;
12048;SDS011;6085;49.452;8.502;2024-01-30T04:56:48;3.20;;;2.65;;
12048;SDS011;6085;49.452;8.502;2024-01-30T05:00:50;3.75;;;2.63;;
12048;SDS011;6085;49.452;8.502;2024-01-30T05:04:53;4.43;;;3.25;;
12048;SDS011;6085;49.452;8.502;2024-01-30T05:08:55;3.05;;;2.65;;
12048;SDS011;6085;49.452;8.502;2024-01-30T05:12:57;4.10;;;3.17;;
12048;SDS011;6085;49.452;8.502;2024-01-30T05:16:59;2.95;;;2.70;;
12048;SDS011;6085;49.452;8.502;2024-01-30T05:21:05;3.90;;;3.22;;
12048;SDS011;6085;49.452;8.502;2024-01-30T05:25:07;4.70;;;3.58;;
12048;SDS011;6085;49.452;8.502;2024-01-30T05:29:09;3.05;;;2.65;;
12048;SDS011;6085;49.452;8.502;2024-01-30T05:33:11;6.55;;;3.65;;
12048;SDS011;6085;49.452;8.502;2024-01-30T05:37:14;3.33;;;3.03;;
12048;SDS011;6085;49.452;8.502;2024-01-30T05:41:17;3.92;;;3.08;;
12048;SDS011;6085;49.452;8.502;2024-01-30T05:45:21;4.00;;;3.22;;
12048;SDS011;6085;49.452;8.502;2024-01-30T05:49:23;3.92;;;3.00;;
12048;SDS011;6085;49.452;8.502;2024-01-30T05:53:26;4.05;;;3.28;;
12048;SDS011;6085;49.452;8.502;2024-01-30T05:57:28;4.82;;;3.13;;
12048;SDS011;6085;49.452;8.502;2024-01-30T06:01:30;3.63;;;2.63;;
12048;SDS011;6085;49.452;8.502;2024-01-30T06:05:32;2.92;;;2.55;;
12048;SDS011;6085;49.452;8.502;2024-01-30T06:09:35;5.13;;;3.42;;
12048;SDS011;6085;49.452;8.502;2024-01-30T06:13:38;6.18;;;3.33;;
12048;SDS011;6085;49.452;8.502;2024-01-30T06:17:40;3.00;;;2.75;;
12048;SDS011;6085;49.452;8.502;2024-01-30T06:21:42;4.07;;;3.08;;
12048;SDS011;6085;49.452;8.502;2024-01-30T06:25:45;5.70;;;3.05;;
12048;SDS011;6085;49.452;8.502;2024-01-30T06:29:47;2.40;;;2.22;;
12048;SDS011;6085;49.452;8.502;2024-01-30T06:33:49;5.30;;;2.88;;
12048;SDS011;6085;49.452;8.502;2024-01-30T06:37:51;3.05;;;2.50;;
12048;SDS011;6085;49.452;8.502;2024-01-30T06:41:54;6.13;;;3.40;;
12048;SDS011;6085;49.452;8.502;2024-01-30T06:45:56;4.97;;;3.15;;
12048;SDS011;6085;49.452;8.502;2024-01-30T06:49:58;3.53;;;3.05;;
12048;SDS011;6085;49.452;8.502;2024-01-30T06:53:59;5.47;;;3.97;;
12048;SDS011;6085;49.452;8.502;2024-01-30T06:58:03;4.13;;;3.15;;
12048;SDS011;6085;49.452;8.502;2024-01-30T07:02:05;3.22;;;2.92;;
12048;SDS011;6085;49.452;8.502;2024-01-30T07:06:07;5.72;;;3.95;;
12048;SDS011;6085;49.452;8.502;2024-01-30T07:10:10;4.57;;;3.55;;
12048;SDS011;6085;49.452;8.502;2024-01-30T07:14:14;4.78;;;3.45;;
12048;SDS011;6085;49.452;8.502;2024-01-30T07:18:15;4.15;;;3.30;;
12048;SDS011;6085;49.452;8.502;2024-01-30T07:22:17;4.50;;;2.85;;
12048;SDS011;6085;49.452;8.502;2024-01-30T07:26:20;5.07;;;3.35;;
12048;SDS011;6085;49.452;8.502;2024-01-30T07:30:24;3.88;;;3.58;;
12048;SDS011;6085;49.452;8.502;2024-01-30T07:34:25;4.55;;;3.47;;
12048;SDS011;6085;49.452;8.502;2024-01-30T07:38:28;9.82;;;3.35;;
12048;SDS011;6085;49.452;8.502;2024-01-30T07:42:33;5.75;;;3.83;;
12048;SDS011;6085;49.452;8.502;2024-01-30T07:46:37;5.85;;;3.53;;
12048;SDS011;6085;49.452;8.502;2024-01-30T07:50:38;4.55;;;3.20;;
12048;SDS011;6085;49.452;8.502;2024-01-30T07:54:40;5.97;;;3.95;;
12048;SDS011;6085;49.452;8.502;2024-01-30T07:58:42;6.90;;;3.20;;
12048;SDS011;6085;49.452;8.502;2024-01-30T08:02:46;4.50;;;3.42;;
12048;SDS011;6085;49.452;8.502;2024-01-30T08:06:47;4.03;;;3.38;;
12048;SDS011;6085;49.452;8.502;2024-01-30T08:10:49;6.30;;;3.40;;
12048;SDS011;6085;49.452;8.502;2024-01-30T08:14:51;4.10;;;3.15;;
12048;SDS011;6085;49.452;8.502;2024-01-30T08:18:54;4.78;;;3.80;;
12048;SDS011;6085;49.452;8.502;2024-01-30T08:22:57;5.40;;;3.50;;
12048;SDS011;6085;49.452;8.502;2024-01-30T08:27:00;5.65;;;3.17;;
12048;SDS011;6085;49.452;8.502;2024-01-30T08:31:02;5.75;;;3.85;;
12048;SDS011;6085;49.452;8.502;2024-01-30T08:35:06;4.63;;;3.60;;
12048;SDS011;6085;49.452;8.502;2024-01-30T08:39:09;4.15;;;3.33;;
12048;SDS011;6085;49.452;8.502;2024-01-30T08:43:10;5.22;;;3.88;;
12048;SDS011;6085;49.452;8.502;2024-01-30T08:47:12;5.05;;;3.92;;
12048;SDS011;6085;49.452;8.502;2024-01-30T08:51:17;6.93;;;3.78;;
12048;SDS011;6085;49.452;8.502;2024-01-30T08:55:22;3.60;;;3.20;;
12048;SDS011;6085;49.452;8.502;2024-01-30T08:59:24;8.02;;;3.75;;
12048;SDS011;6085;49.452;8.502;2024-01-30T09:03:26;7.95;;;3.40;;
12048;SDS011;6085;49.452;8.502;2024-01-30T09:07:29;4.75;;;3.88;;
12048;SDS011;6085;49.452;8.502;2024-01-30T09:11:31;4.75;;;3.08;;
12048;SDS011;6085;49.452;8.502;2024-01-30T09:15:32;3.65;;;3.33;;
12048;SDS011;6085;49.452;8.502;2024-01-30T09:19:35;5.55;;;3.47;;
12048;SDS011;6085;49.452;8.502;2024-01-30T09:23:38;4.35;;;3.92;;
12048;SDS011;6085;49.452;8.502;2024-01-30T09:27:40;5.15;;;3.72;;
12048;SDS011;6085;49.452;8.502;2024-01-30T09:31:42;10.05;;;3.80;;
12048;SDS011;6085;49.452;8.502;2024-01-30T09:35:44;5.00;;;3.40;;
12048;SDS011;6085;49.452;8.502;2024-01-30T09:39:47;3.90;;;3.03;;
12048;SDS011;6085;49.452;8.502;2024-01-30T09:43:49;5.85;;;3.60;;
12048;SDS011;6085;49.452;8.502;2024-01-30T09:47:52;6.30;;;3.80;;
12048;SDS011;6085;49.452;8.502;2024-01-30T09:51:54;5.72;;;3.50;;
12048;SDS011;6085;49.452;8.502;2024-01-30T09:55:58;6.13;;;3.70;;
12048;SDS011;6085;49.452;8.502;2024-01-30T10:00:02;4.20;;;3.67;;
12048;SDS011;6085;49.452;8.502;2024-01-30T10:04:07;3.67;;;3.00;;
12048;SDS011;6085;49.452;8.502;2024-01-30T10:08:08;4.63;;;3.80;;
12048;SDS011;6085;49.452;8.502;2024-01-30T10:12:12;6.25;;;4.25;;
12048;SDS011;6085;49.452;8.502;2024-01-30T10:16:14;5.95;;;3.47;;
12048;SDS011;6085;49.452;8.502;2024-01-30T10:20:17;5.63;;;3.90;;
12048;SDS011;6085;49.452;8.502;2024-01-30T10:24:23;5.38;;;3.72;;
12048;SDS011;6085;49.452;8.502;2024-01-30T10:28:28;4.20;;;3.75;;
12048;SDS011;6085;49.452;8.502;2024-01-30T10:32:30;7.85;;;4.32;;
12048;SDS011;6085;49.452;8.502;2024-01-30T10:36:32;5.00;;;3.47;;
12048;SDS011;6085;49.452;8.502;2024-01-30T10:40:40;4.05;;;3.35;;
12048;SDS011;6085;49.452;8.502;2024-01-30T10:44:47;4.50;;;3.95;;
12048;SDS011;6085;49.452;8.502;2024-01-30T10:48:58;8.52;;;3.38;;
12048;SDS011;6085;49.452;8.502;2024-01-30T10:53:00;5.47;;;3.90;;
12048;SDS011;6085;49.452;8.502;2024-01-30T10:57:03;4.82;;;3.65;;
12048;SDS011;6085;49.452;8.502;2024-01-30T11:01:08;4.30;;;3.65;;
12048;SDS011;6085;49.452;8.502;2024-01-30T11:05:11;3.35;;;3.05;;
12048;SDS011;6085;49.452;8.502;2024-01-30T11:09:16;6.03;;;3.42;;
12048;SDS011;6085;49.452;8.502;2024-01-30T11:13:19;4.35;;;3.67;;
12048;SDS011;6085;49.452;8.502;2024-01-30T11:17:22;3.78;;;3.38;;
12048;SDS011;6085;49.452;8.502;2024-01-30T11:21:28;4.22;;;3.58;;
12048;SDS011;6085;49.452;8.502;2024-01-30T11:25:30;5.28;;;3.78;;
12048;SDS011;6085;49.452;8.502;2024-01-30T11:29:33;5.03;;;3.35;;
12048;SDS011;6085;49.452;8.502;2024-01-30T11:33:37;4.38;;;3.55;;
12048;SDS011;6085;49.452;8.502;2024-01-30T11:37:39;6.60;;;3.72;;
12048;SDS011;6085;49.452;8.502;2024-01-30T11:41:42;6.85;;;3.80;;
12048;SDS011;6085;49.452;8.502;2024-01-30T11:45:46;4.38;;;3.20;;
12048;SDS011;6085;49.452;8.502;2024-01-30T11:49:50;4.82;;;3.40;;
12048;SDS011;6085;49.452;8.502;2024-01-30T11:53:52;5.05;;;3.55;;
12048;SDS011;6085;49.452;8.502;2024-01-30T11:57:54;4.75;;;4.00;;
12048;SDS011;6085;49.452;8.502;2024-01-30T12:01:57;4.55;;;3.75;;
12048;SDS011;6085;49.452;8.502;2024-01-30T12:06:00;4.75;;;3.30;;
12048;SDS011;6085;49.452;8.502;2024-01-30T12:10:05;4.30;;;3.83;;
12048;SDS011;6085;49.452;8.502;2024-01-30T12:14:09;6.28;;;3.90;;
12048;SDS011;6085;49.452;8.502;2024-01-30T12:18:14;5.78;;;3.67;;
12048;SDS011;6085;49.452;8.502;2024-01-30T12:22:21;4.05;;;3.65;;
12048;SDS011;6085;49.452;8.502;2024-01-30T12:26:23;4.75;;;3.30;;
12048;SDS011;6085;49.452;8.502;2024-01-30T12:30:27;5.70;;;3.70;;
12048;SDS011;6085;49.452;8.502;2024-01-30T12:34:29;6.13;;;3.83;;
12048;SDS011;6085;49.452;8.502;2024-01-30T12:38:33;5.38;;;3.92;;
12048;SDS011;6085;49.452;8.502;2024-01-30T12:42:35;4.85;;;3.55;;
12048;SDS011;6085;49.452;8.502;2024-01-30T12:46:37;6.38;;;3.65;;
12048;SDS011;6085;49.452;8.502;2024-01-30T12:50:40;4.35;;;3.70;;
12048;SDS011;6085;49.452;8.502;2024-01-30T12:54:43;5.38;;;3.97;;
12048;SDS011;6085;49.452;8.502;2024-01-30T12:58:45;7.85;;;3.92;;
12048;SDS011;6085;49.452;8.502;2024-01-30T13:02:47;4.75;;;4.20;;
12048;SDS011;6085;49.452;8.502;2024-01-30T13:06:49;5.00;;;3.65;;
12048;SDS011;6085;49.452;8.502;2024-01-30T13:10:52;6.18;;;3.72;;
12048;SDS011;6085;49.452;8.502;2024-01-30T13:14:54;8.27;;;4.00;;
12048;SDS011;6085;49.452;8.502;2024-01-30T13:18:56;6.10;;;2.97;;
12048;SDS011;6085;49.452;8.502;2024-01-30T13:22:58;4.65;;;3.20;;
12048;SDS011;6085;49.452;8.502;2024-01-30T13:27:01;4.22;;;2.97;;
12048;SDS011;6085;49.452;8.502;2024-01-30T13:31:05;3.88;;;3.03;;
12048;SDS011;6085;49.452;8.502;2024-01-30T13:35:07;5.10;;;3.42;;
12048;SDS011;6085;49.452;8.502;2024-01-30T13:39:09;3.80;;;3.15;;
12048;SDS011;6085;49.452;8.502;2024-01-30T13:43:14;4.47;;;3.28;;
12048;SDS011;6085;49.452;8.502;2024-01-30T13:47:16;5.47;;;3.75;;
12048;SDS011;6085;49.452;8.502;2024-01-30T13:51:19;4.28;;;3.50;;
12048;SDS011;6085;49.452;8.502;2024-01-30T13:55:20;3.88;;;3.20;;
12048;SDS011;6085;49.452;8.502;2024-01-30T13:59:25;6.32;;;3.85;;
12048;SDS011;6085;49.452;8.502;2024-01-30T14:03:26;4.28;;;3.30;;
12048;SDS011;6085;49.452;8.502;2024-01-30T14:07:29;4.70;;;3.10;;
12048;SDS011;6085;49.452;8.502;2024-01-30T14:11:31;3.45;;;2.83;;
12048;SDS011;6085;49.452;8.502;2024-01-30T14:15:34;4.68;;;3.50;;
12048;SDS011;6085;49.452;8.502;2024-01-30T14:19:36;4.70;;;3.25;;
12048;SDS011;6085;49.452;8.502;2024-01-30T14:23:38;5.07;;;3.33;;
12048;SDS011;6085;49.452;8.502;2024-01-30T14:27:39;3.65;;;2.83;;
12048;SDS011;6085;49.452;8.502;2024-01-30T14:31:43;4.25;;;2.90;;
12048;SDS011;6085;49.452;8.502;2024-01-30T14:35:45;4.60;;;3.55;;
12048;SDS011;6085;49.452;8.502;2024-01-30T14:39:46;4.03;;;3.63;;
12048;SDS011;6085;49.452;8.502;2024-01-30T14:43:49;4.00;;;3.05;;
12048;SDS011;6085;49.452;8.502;2024-01-30T14:47:52;4.00;;;3.17;;
12048;SDS011;6085;49.452;8.502;2024-01-30T14:51:55;3.92;;;3.13;;
12048;SDS011;6085;49.452;8.502;2024-01-30T14:55:59;2.92;;;2.42;;
12048;SDS011;6085;49.452;8.502;2024-01-30T15:00:03;2.78;;;2.17;;
12048;SDS011;6085;49.452;8.502;2024-01-30T15:04:07;3.67;;;3.10;;
12048;SDS011;6085;49.452;8.502;2024-01-30T15:08:08;3.42;;;2.80;;
12048;SDS011;6085;49.452;8.502;2024-01-30T15:12:11;5.72;;;2.85;;
12048;SDS011;6085;49.452;8.502;2024-01-30T15:16:13;2.72;;;2.15;;
12048;SDS011;6085;49.452;8.502;2024-01-30T15:20:18;4.78;;;2.80;;
12048;SDS011;6085;49.452;8.502;2024-01-30T15:24:20;4.05;;;2.58;;
12048;SDS011;6085;49.452;8.502;2024-01-30T15:28:33;4.22;;;2.55;;
12048;SDS011;6085;49.452;8.502;2024-01-30T15:32:36;3.38;;;2.83;;
12048;SDS011;6085;49.452;8.502;2024-01-30T15:36:40;2.95;;;2.40;;
12048;SDS011;6085;49.452;8.502;2024-01-30T15:40:43;3.83;;;3.03;;
12048;SDS011;6085;49.452;8.502;2024-01-30T15:44:45;5.00;;;2.50;;
12048;SDS011;6085;49.452;8.502;2024-01-30T15:48:47;3.65;;;2.45;;
12048;SDS011;6085;49.452;8.502;2024-01-30T15:52:50;4.40;;;2.40;;
12048;SDS011;6085;49.452;8.502;2024-01-30T15:56:53;2.95;;;2.40;;
12048;SDS011;6085;49.452;8.502;2024-01-30T16:00:55;2.58;;;1.83;;
12048;SDS011;6085;49.452;8.502;2024-01-30T16:04:57;2.78;;;2.25;;
12048;SDS011;6085;49.452;8.502;2024-01-30T16:09:01;3.42;;;2.65;;
12048;SDS011;6085;49.452;8.502;2024-01-30T16:13:03;4.45;;;2.90;;
12048;SDS011;6085;49.452;8.502;2024-01-30T16:17:05;3.17;;;2.58;;
12048;SDS011;6085;49.452;8.502;2024-01-30T16:21:07;3.17;;;2.55;;
12048;SDS011;6085;49.452;8.502;2024-01-30T16:25:13;3.17;;;2.63;;
12048;SDS011;6085;49.452;8.502;2024-01-30T16:29:17;2.58;;;2.28;;
12048;SDS011;6085;49.452;8.502;2024-01-30T16:33:19;2.88;;;2.47;;
12048;SDS011;6085;49.452;8.502;2024-01-30T16:37:21;3.13;;;2.78;;
12048;SDS011;6085;49.452;8.502;2024-01-30T16:41:24;3.78;;;2.67;;
12048;SDS011;6085;49.452;8.502;2024-01-30T16:45:26;4.63;;;2.85;;
12048;SDS011;6085;49.452;8.502;2024-01-30T16:49:28;3.90;;;2.40;;
12048;SDS011;6085;49.452;8.502;2024-01-30T16:53:30;8.77;;;2.95;;
12048;SDS011;6085;49.452;8.502;2024-01-30T16:57:33;2.72;;;2.25;;
12048;SDS011;6085;49.452;8.502;2024-01-30T17:01:35;2.85;;;2.65;;
12048;SDS011;6085;49.452;8.502;2024-01-30T17:05:37;3.88;;;2.70;;
12048;SDS011;6085;49.452;8.502;2024-01-30T17:09:39;4.00;;;2.65;;
12048;SDS011;6085;49.452;8.502;2024-01-30T17:13:42;3.15;;;2.30;;
12048;SDS011;6085;49.452;8.502;2024-01-30T17:17:44;4.57;;;2.90;;
12048;SDS011;6085;49.452;8.502;2024-01-30T17:21:47;4.20;;;2.47;;
12048;SDS011;6085;49.452;8.502;2024-01-30T17:25:49;3.08;;;2.78;;
12048;SDS011;6085;49.452;8.502;2024-01-30T17:29:52;4.57;;;2.88;;
12048;SDS011;6085;49.452;8.502;2024-01-30T17:33:54;3.97;;;2.95;;
12048;SDS011;6085;49.452;8.502;2024-01-30T17:37:55;3.63;;;3.13;;
12048;SDS011;6085;49.452;8.502;2024-01-30T17:41:57;3.08;;;2.65;;
12048;SDS011;6085;49.452;8.502;2024-01-30T17:46:01;4.35;;;3.35;;
12048;SDS011;6085;49.452;8.502;2024-01-30T17:50:04;4.25;;;3.20;;
12048;SDS011;6085;49.452;8.502;2024-01-30T17:54:06;3.95;;;2.95;;
12048;SDS011;6085;49.452;8.502;2024-01-30T17:58:08;5.03;;;2.75;;
12048;SDS011;6085;49.452;8.502;2024-01-30T18:02:12;5.07;;;3.88;;
12048;SDS011;6085;49.452;8.502;2024-01-30T18:06:15;4.53;;;2.88;;
12048;SDS011;6085;49.452;8.502;2024-01-30T18:10:17;4.68;;;3.05;;
12048;SDS011;6085;49.452;8.502;2024-01-30T18:14:19;3.70;;;2.97;;
12048;SDS011;6085;49.452;8.502;2024-01-30T18:18:23;5.15;;;3.40;;
12048;SDS011;6085;49.452;8.502;2024-01-30T18:22:26;3.20;;;2.80;;
12048;SDS011;6085;49.452;8.502;2024-01-30T18:26:28;7.75;;;3.22;;
12048;SDS011;6085;49.452;8.502;2024-01-30T18:30:31;4.88;;;3.45;;
12048;SDS011;6085;49.452;8.502;2024-01-30T18:34:34;4.90;;;3.17;;
12048;SDS011;6085;49.452;8.502;2024-01-30T18:38:36;5.95;;;3.72;;
12048;SDS011;6085;49.452;8.502;2024-01-30T18:42:38;3.90;;;2.55;;
12048;SDS011;6085;49.452;8.502;2024-01-30T18:46:39;5.60;;;4.05;;
12048;SDS011;6085;49.452;8.502;2024-01-30T18:50:43;4.60;;;3.38;;
12048;SDS011;6085;49.452;8.502;2024-01-30T18:54:45;3.10;;;2.80;;
12048;SDS011;6085;49.452;8.502;2024-01-30T18:58:47;2.67;;;2.33;;
12048;SDS011;6085;49.452;8.502;2024-01-30T19:02:49;4.03;;;3.60;;
12048;SDS011;6085;49.452;8.502;2024-01-30T19:06:52;3.67;;;2.53;;
12048;SDS011;6085;49.452;8.502;2024-01-30T19:10:54;3.45;;;2.63;;
12048;SDS011;6085;49.452;8.502;2024-01-30T19:14:55;6.32;;;3.20;;
12048;SDS011;6085;49.452;8.502;2024-01-30T19:18:57;3.70;;;2.80;;
12048;SDS011;6085;49.452;8.502;2024-01-30T19:23:00;5.25;;;3.30;;
12048;SDS011;6085;49.452;8.502;2024-01-30T19:27:02;6.75;;;3.83;;
12048;SDS011;6085;49.452;8.502;2024-01-30T19:31:05;5.28;;;3.80;;
12048;SDS011;6085;49.452;8.502;2024-01-30T19:35:08;5.32;;;4.47;;
12048;SDS011;6085;49.452;8.502;2024-01-30T19:39:11;4.85;;;3.72;;
12048;SDS011;6085;49.452;8.502;2024-01-30T19:43:13;5.72;;;3.80;;
12048;SDS011;6085;49.452;8.502;2024-01-30T19:47:15;4.97;;;3.55;;
12048;SDS011;6085;49.452;8.502;2024-01-30T19:51:17;4.57;;;3.58;;
12048;SDS011;6085;49.452;8.502;2024-01-30T19:55:20;4.53;;;3.35;;
12048;SDS011;6085;49.452;8.502;2024-01-30T19:59:22;4.28;;;3.22;;
12048;SDS011;6085;49.452;8.502;2024-01-30T20:03:24;7.13;;;4.13;;
12048;SDS011;6085;49.452;8.502;2024-01-30T20:07:29;7.40;;;3.70;;
12048;SDS011;6085;49.452;8.502;2024-01-30T20:11:32;5.97;;;4.10;;
12048;SDS011;6085;49.452;8.502;2024-01-30T20:15:34;4.75;;;3.75;;
12048;SDS011;6085;49.452;8.502;2024-01-30T20:19:36;5.65;;;3.67;;
12048;SDS011;6085;49.452;8.502;2024-01-30T20:23:37;5.10;;;3.67;;
12048;SDS011;6085;49.452;8.502;2024-01-30T20:27:41;5.18;;;4.43;;
12048;SDS011;6085;49.452;8.502;2024-01-30T20:31:44;4.75;;;3.72;;
12048;SDS011;6085;49.452;8.502;2024-01-30T20:35:46;5.55;;;3.90;;
12048;SDS011;6085;49.452;8.502;2024-01-30T20:39:48;6.53;;;4.45;;
12048;SDS011;6085;49.452;8.502;2024-01-30T20:43:51;6.25;;;4.13;;
12048;SDS011;6085;49.452;8.502;2024-01-30T20:47:53;6.45;;;5.00;;
12048;SDS011;6085;49.452;8.502;2024-01-30T20:51:55;8.10;;;4.95;;
12048;SDS011;6085;49.452;8.502;2024-01-30T20:55:57;5.45;;;4.45;;
12048;SDS011;6085;49.452;8.502;2024-01-30T21:00:00;5.97;;;4.45;;
12048;SDS011;6085;49.452;8.502;2024-01-30T21:04:04;9.45;;;5.25;;
12048;SDS011;6085;49.452;8.502;2024-01-30T21:08:06;8.05;;;5.15;;
12048;SDS011;6085;49.452;8.502;2024-01-30T21:12:08;8.27;;;4.57;;
12048;SDS011;6085;49.452;8.502;2024-01-30T21:16:11;6.60;;;5.10;;
12048;SDS011;6085;49.452;8.502;2024-01-30T21:20:13;6.32;;;4.47;;
12048;SDS011;6085;49.452;8.502;2024-01-30T21:24:16;7.22;;;4.43;;
12048;SDS011;6085;49.452;8.502;2024-01-30T21:28:17;5.40;;;4.50;;
12048;SDS011;6085;49.452;8.502;2024-01-30T21:32:21;6.25;;;4.28;;
12048;SDS011;6085;49.452;8.502;2024-01-30T21:36:23;7.30;;;4.55;;
12048;SDS011;6085;49.452;8.502;2024-01-30T21:40:25;5.60;;;4.90;;
12048;SDS011;6085;49.452;8.502;2024-01-30T21:44:27;6.55;;;4.25;;
12048;SDS011;6085;49.452;8.502;2024-01-30T21:48:30;6.25;;;4.05;;
12048;SDS011;6085;49.452;8.502;2024-01-30T21:52:32;9.60;;;4.72;;
12048;SDS011;6085;49.452;8.502;2024-01-30T21:56:34;5.50;;;4.68;;
12048;SDS011;6085;49.452;8.502;2024-01-30T22:00:37;7.28;;;4.70;;
12048;SDS011;6085;49.452;8.502;2024-01-30T22:04:40;5.07;;;3.88;;
12048;SDS011;6085;49.452;8.502;2024-01-30T22:08:43;5.57;;;3.88;;
12048;SDS011;6085;49.452;8.502;2024-01-30T22:12:45;8.35;;;4.05;;
12048;SDS011;6085;49.452;8.502;2024-01-30T22:16:47;7.22;;;3.72;;
12048;SDS011;6085;49.452;8.502;2024-01-30T22:20:50;5.60;;;3.50;;
12048;SDS011;6085;49.452;8.502;2024-01-30T22:24:52;4.78;;;3.33;;
12048;SDS011;6085;49.452;8.502;2024-01-30T22:28:54;4.22;;;3.35;;
12048;SDS011;6085;49.452;8.502;2024-01-30T22:32:57;5.38;;;4.15;;
12048;SDS011;6085;49.452;8.502;2024-01-30T22:37:00;3.72;;;3.13;;
12048;SDS011;6085;49.452;8.502;2024-01-30T22:41:02;3.72;;;3.30;;
12048;SDS011;6085;49.452;8.502;2024-01-30T22:45:05;4.82;;;3.50;;
12048;SDS011;6085;49.452;8.502;2024-01-30T22:49:07;6.95;;;3.72;;
12048;SDS011;6085;49.452;8.502;2024-01-30T22:53:10;6.03;;;4.22;;
12048;SDS011;6085;49.452;8.502;2024-01-30T22:57:12;6.07;;;4.65;;
12048;SDS011;6085;49.452;8.502;2024-01-30T23:01:14;5.13;;;3.83;;
12048;SDS011;6085;49.452;8.502;2024-01-30T23:05:16;6.10;;;3.47;;
12048;SDS011;6085;49.452;8.502;2024-01-30T23:09:20;5.25;;;3.72;;
12048;SDS011;6085;49.452;8.502;2024-01-30T23:13:22;7.57;;;4.03;;
12048;SDS011;6085;49.452;8.502;2024-01-30T23:17:23;6.85;;;4.28;;
12048;SDS011;6085;49.452;8.502;2024-01-30T23:21:25;4.82;;;2.88;;
12048;SDS011;6085;49.452;8.502;2024-01-30T23:25:30;6.88;;;3.85;;
12048;SDS011;6085;49.452;8.502;2024-01-30T23:29:32;4.90;;;3.28;;
12048;SDS011;6085;49.452;8.502;2024-01-30T23:33:33;5.82;;;4.00;;
12048;SDS011;6085;49.452;8.502;2024-01-30T23:37:35;4.57;;;3.92;;
12048;SDS011;6085;49.452;8.502;2024-01-30T23:41:39;4.40;;;3.92;;
12048;SDS011;6085;49.452;8.502;2024-01-30T23:45:41;4.40;;;3.92;;
12048;SDS011;6085;49.452;8.502;2024-01-30T23:49:44;7.40;;;3.85;;
12048;SDS011;6085;49.452;8.502;2024-01-30T23:53:46;5.40;;;4.18;;
12048;SDS011;6085;49.452;8.502;2024-01-30T23:57:49;5.35;;;4.03;;
